sensor_id;sensor_type;location;lat;lon;timestamp;P1;durP1;ratioP1;P2;durP2;ratioP2
32407;SDS011;18869;55.970;37.502;2023-10-31T00:01:19;9.87;;;7.80;;
32407;SDS011;18869;55.970;37.502;2023-10-31T00:03:47;12.93;;;8.37;;
32407;SDS011;18869;55.970;37.502;2023-10-31T00:06:14;11.93;;;8.60;;
32407;SDS011;18869;55.970;37.502;2023-10-31T00:08:42;10.03;;;8.57;;
32407;SDS011;18869;55.970;37.502;2023-10-31T00:11:09;10.23;;;7.73;;
32407;SDS011;18869;55.970;37.502;2023-10-31T00:13:36;10.27;;;8.30;;
32407;SDS011;18869;55.970;37.502;2023-10-31T00:16:03;9.97;;;9.00;;
32407;SDS011;18869;55.970;37.502;2023-10-31T00:18:31;9.13;;;8.33;;
32407;SDS011;18869;55.970;37.502;2023-10-31T00:20:58;9.83;;;8.17;;
32407;SDS011;18869;55.970;37.502;2023-10-31T00:23:25;8.70;;;6.93;;
32407;SDS011;18869;55.970;37.502;2023-10-31T00:25:53;8.60;;;7.80;;
32407;SDS011;18869;55.970;37.502;2023-10-31T00:28:20;7.87;;;7.17;;
32407;SDS011;18869;55.970;37.502;2023-10-31T00:30:47;9.13;;;7.83;;
32407;SDS011;18869;55.970;37.502;2023-10-31T00:33:14;7.83;;;7.13;;
32407;SDS011;18869;55.970;37.502;2023-10-31T00:35:42;8.97;;;8.07;;
32407;SDS011;18869;55.970;37.502;2023-10-31T00:38:09;8.80;;;7.40;;
32407;SDS011;18869;55.970;37.502;2023-10-31T00:40:37;9.77;;;7.60;;
32407;SDS011;18869;55.970;37.502;2023-10-31T00:43:04;7.90;;;7.20;;
32407;SDS011;18869;55.970;37.502;2023-10-31T00:45:31;8.40;;;7.60;;
32407;SDS011;18869;55.970;37.502;2023-10-31T00:47:59;7.80;;;7.07;;
32407;SDS011;18869;55.970;37.502;2023-10-31T00:50:26;8.00;;;7.20;;
32407;SDS011;18869;55.970;37.502;2023-10-31T00:52:53;8.20;;;7.40;;
32407;SDS011;18869;55.970;37.502;2023-10-31T00:55:22;8.23;;;6.37;;
32407;SDS011;18869;55.970;37.502;2023-10-31T00:57:49;7.47;;;6.77;;
32407;SDS011;18869;55.970;37.502;2023-10-31T01:00:17;8.20;;;7.40;;
32407;SDS011;18869;55.970;37.502;2023-10-31T01:02:45;7.53;;;6.80;;
32407;SDS011;18869;55.970;37.502;2023-10-31T01:05:12;7.77;;;6.90;;
32407;SDS011;18869;55.970;37.502;2023-10-31T01:07:39;11.27;;;7.37;;
32407;SDS011;18869;55.970;37.502;2023-10-31T01:10:07;7.80;;;7.00;;
32407;SDS011;18869;55.970;37.502;2023-10-31T01:12:34;8.50;;;7.60;;
32407;SDS011;18869;55.970;37.502;2023-10-31T01:15:01;8.07;;;7.27;;
32407;SDS011;18869;55.970;37.502;2023-10-31T01:17:31;8.70;;;7.10;;
32407;SDS011;18869;55.970;37.502;2023-10-31T01:19:58;8.53;;;7.60;;
32407;SDS011;18869;55.970;37.502;2023-10-31T01:22:25;10.97;;;7.40;;
32407;SDS011;18869;55.970;37.502;2023-10-31T01:24:52;8.20;;;7.33;;
32407;SDS011;18869;55.970;37.502;2023-10-31T01:27:19;7.30;;;6.60;;
32407;SDS011;18869;55.970;37.502;2023-10-31T01:29:47;8.83;;;7.20;;
32407;SDS011;18869;55.970;37.502;2023-10-31T01:32:14;8.23;;;7.47;;
32407;SDS011;18869;55.970;37.502;2023-10-31T01:34:42;8.40;;;7.50;;
32407;SDS011;18869;55.970;37.502;2023-10-31T01:37:09;10.33;;;8.30;;
32407;SDS011;18869;55.970;37.502;2023-10-31T01:39:36;9.77;;;8.87;;
32407;SDS011;18869;55.970;37.502;2023-10-31T01:42:03;8.53;;;7.73;;
32407;SDS011;18869;55.970;37.502;2023-10-31T01:44:30;10.87;;;7.97;;
32407;SDS011;18869;55.970;37.502;2023-10-31T01:46:58;9.47;;;8.47;;
32407;SDS011;18869;55.970;37.502;2023-10-31T01:49:25;9.80;;;8.60;;
32407;SDS011;18869;55.970;37.502;2023-10-31T01:51:52;12.83;;;10.60;;
32407;SDS011;18869;55.970;37.502;2023-10-31T01:54:20;13.90;;;10.93;;
32407;SDS011;18869;55.970;37.502;2023-10-31T01:56:47;14.10;;;11.37;;
32407;SDS011;18869;55.970;37.502;2023-10-31T01:59:16;14.03;;;10.47;;
32407;SDS011;18869;55.970;37.502;2023-10-31T02:01:44;14.03;;;10.97;;
32407;SDS011;18869;55.970;37.502;2023-10-31T02:04:11;12.57;;;9.77;;
32407;SDS011;18869;55.970;37.502;2023-10-31T02:06:38;10.23;;;9.13;;
32407;SDS011;18869;55.970;37.502;2023-10-31T02:09:07;9.27;;;8.37;;
32407;SDS011;18869;55.970;37.502;2023-10-31T02:11:34;9.17;;;8.27;;
32407;SDS011;18869;55.970;37.502;2023-10-31T02:14:01;9.20;;;8.17;;
32407;SDS011;18869;55.970;37.502;2023-10-31T02:16:28;8.77;;;7.30;;
32407;SDS011;18869;55.970;37.502;2023-10-31T02:18:56;6.87;;;6.00;;
32407;SDS011;18869;55.970;37.502;2023-10-31T02:21:23;7.20;;;6.50;;
32407;SDS011;18869;55.970;37.502;2023-10-31T02:23:57;6.80;;;6.20;;
32407;SDS011;18869;55.970;37.502;2023-10-31T02:26:27;8.17;;;6.47;;
32407;SDS011;18869;55.970;37.502;2023-10-31T02:28:55;7.60;;;5.70;;
32407;SDS011;18869;55.970;37.502;2023-10-31T02:31:22;6.47;;;5.57;;
32407;SDS011;18869;55.970;37.502;2023-10-31T02:33:49;6.60;;;6.00;;
32407;SDS011;18869;55.970;37.502;2023-10-31T02:36:16;7.70;;;5.90;;
32407;SDS011;18869;55.970;37.502;2023-10-31T02:38:44;6.07;;;5.57;;
32407;SDS011;18869;55.970;37.502;2023-10-31T02:41:14;5.70;;;5.20;;
32407;SDS011;18869;55.970;37.502;2023-10-31T02:43:42;6.70;;;6.13;;
32407;SDS011;18869;55.970;37.502;2023-10-31T02:46:09;6.07;;;5.47;;
32407;SDS011;18869;55.970;37.502;2023-10-31T02:48:38;5.80;;;5.23;;
32407;SDS011;18869;55.970;37.502;2023-10-31T02:51:07;5.80;;;5.20;;
32407;SDS011;18869;55.970;37.502;2023-10-31T02:53:35;6.07;;;5.40;;
32407;SDS011;18869;55.970;37.502;2023-10-31T02:56:02;6.23;;;5.63;;
32407;SDS011;18869;55.970;37.502;2023-10-31T02:58:31;6.30;;;5.70;;
32407;SDS011;18869;55.970;37.502;2023-10-31T03:00:57;6.00;;;5.40;;
32407;SDS011;18869;55.970;37.502;2023-10-31T03:03:25;5.60;;;5.17;;
32407;SDS011;18869;55.970;37.502;2023-10-31T03:05:52;5.67;;;5.10;;
32407;SDS011;18869;55.970;37.502;2023-10-31T03:08:19;5.60;;;5.20;;
32407;SDS011;18869;55.970;37.502;2023-10-31T03:10:47;7.60;;;5.97;;
32407;SDS011;18869;55.970;37.502;2023-10-31T03:13:22;6.33;;;5.73;;
32407;SDS011;18869;55.970;37.502;2023-10-31T03:15:50;6.57;;;5.93;;
32407;SDS011;18869;55.970;37.502;2023-10-31T03:18:17;7.20;;;6.00;;
32407;SDS011;18869;55.970;37.502;2023-10-31T03:20:44;8.47;;;6.63;;
32407;SDS011;18869;55.970;37.502;2023-10-31T03:23:12;6.67;;;6.07;;
32407;SDS011;18869;55.970;37.502;2023-10-31T03:25:39;9.10;;;6.20;;
32407;SDS011;18869;55.970;37.502;2023-10-31T03:28:09;7.00;;;6.30;;
32407;SDS011;18869;55.970;37.502;2023-10-31T03:30:45;7.30;;;6.70;;
32407;SDS011;18869;55.970;37.502;2023-10-31T03:33:14;7.80;;;7.03;;
32407;SDS011;18869;55.970;37.502;2023-10-31T03:35:41;6.50;;;5.90;;
32407;SDS011;18869;55.970;37.502;2023-10-31T03:38:08;8.23;;;7.27;;
32407;SDS011;18869;55.970;37.502;2023-10-31T03:40:35;7.60;;;6.50;;
32407;SDS011;18869;55.970;37.502;2023-10-31T03:43:03;6.43;;;5.83;;
32407;SDS011;18869;55.970;37.502;2023-10-31T03:45:30;7.27;;;6.57;;
32407;SDS011;18869;55.970;37.502;2023-10-31T03:47:59;6.97;;;6.27;;
32407;SDS011;18869;55.970;37.502;2023-10-31T03:50:26;6.37;;;5.83;;
32407;SDS011;18869;55.970;37.502;2023-10-31T03:52:54;7.43;;;6.73;;
32407;SDS011;18869;55.970;37.502;2023-10-31T03:55:21;8.30;;;6.83;;
32407;SDS011;18869;55.970;37.502;2023-10-31T03:57:49;13.17;;;7.77;;
32407;SDS011;18869;55.970;37.502;2023-10-31T04:00:16;7.10;;;5.80;;
32407;SDS011;18869;55.970;37.502;2023-10-31T04:02:44;7.60;;;6.87;;
32407;SDS011;18869;55.970;37.502;2023-10-31T04:05:11;7.87;;;6.77;;
32407;SDS011;18869;55.970;37.502;2023-10-31T04:39:34;8.97;;;8.07;;
32407;SDS011;18869;55.970;37.502;2023-10-31T04:42:02;8.30;;;7.43;;
32407;SDS011;18869;55.970;37.502;2023-10-31T04:44:29;8.07;;;7.37;;
32407;SDS011;18869;55.970;37.502;2023-10-31T04:46:56;8.90;;;8.00;;
32407;SDS011;18869;55.970;37.502;2023-10-31T04:49:23;8.40;;;7.57;;
32407;SDS011;18869;55.970;37.502;2023-10-31T04:51:51;9.17;;;7.87;;
32407;SDS011;18869;55.970;37.502;2023-10-31T04:54:18;8.20;;;7.37;;
32407;SDS011;18869;55.970;37.502;2023-10-31T04:56:47;9.03;;;7.83;;
32407;SDS011;18869;55.970;37.502;2023-10-31T04:59:14;8.33;;;7.43;;
32407;SDS011;18869;55.970;37.502;2023-10-31T05:01:41;8.53;;;7.70;;
32407;SDS011;18869;55.970;37.502;2023-10-31T05:04:18;9.13;;;8.23;;
32407;SDS011;18869;55.970;37.502;2023-10-31T05:06:45;10.20;;;8.73;;
32407;SDS011;18869;55.970;37.502;2023-10-31T05:09:13;44.47;;;19.73;;
32407;SDS011;18869;55.970;37.502;2023-10-31T05:11:41;50.87;;;21.03;;
32407;SDS011;18869;55.970;37.502;2023-10-31T05:14:09;61.57;;;24.27;;
32407;SDS011;18869;55.970;37.502;2023-10-31T05:16:40;61.70;;;29.67;;
32407;SDS011;18869;55.970;37.502;2023-10-31T05:19:07;50.43;;;25.90;;
32407;SDS011;18869;55.970;37.502;2023-10-31T05:21:35;48.60;;;22.73;;
32407;SDS011;18869;55.970;37.502;2023-10-31T05:24:02;44.73;;;23.50;;
32407;SDS011;18869;55.970;37.502;2023-10-31T05:26:33;47.57;;;23.80;;
32407;SDS011;18869;55.970;37.502;2023-10-31T05:29:02;42.80;;;23.17;;
32407;SDS011;18869;55.970;37.502;2023-10-31T05:31:30;43.83;;;21.33;;
32407;SDS011;18869;55.970;37.502;2023-10-31T05:33:57;53.07;;;26.77;;
32407;SDS011;18869;55.970;37.502;2023-10-31T05:36:25;51.17;;;28.57;;
32407;SDS011;18869;55.970;37.502;2023-10-31T05:38:53;37.87;;;22.27;;
32407;SDS011;18869;55.970;37.502;2023-10-31T05:41:20;45.63;;;22.50;;
32407;SDS011;18869;55.970;37.502;2023-10-31T05:43:48;39.10;;;21.23;;
32407;SDS011;18869;55.970;37.502;2023-10-31T05:46:15;31.83;;;19.17;;
32407;SDS011;18869;55.970;37.502;2023-10-31T05:48:44;32.80;;;18.93;;
32407;SDS011;18869;55.970;37.502;2023-10-31T05:51:11;33.43;;;18.97;;
32407;SDS011;18869;55.970;37.502;2023-10-31T05:53:39;32.07;;;17.97;;
32407;SDS011;18869;55.970;37.502;2023-10-31T05:56:09;21.07;;;15.27;;
32407;SDS011;18869;55.970;37.502;2023-10-31T05:58:36;13.60;;;11.93;;
32407;SDS011;18869;55.970;37.502;2023-10-31T06:01:04;13.13;;;11.47;;
32407;SDS011;18869;55.970;37.502;2023-10-31T06:03:32;16.67;;;11.47;;
32407;SDS011;18869;55.970;37.502;2023-10-31T06:05:59;16.07;;;10.70;;
32407;SDS011;18869;55.970;37.502;2023-10-31T06:08:27;13.53;;;10.90;;
32407;SDS011;18869;55.970;37.502;2023-10-31T06:10:55;16.63;;;12.03;;
32407;SDS011;18869;55.970;37.502;2023-10-31T06:13:23;16.70;;;11.87;;
32407;SDS011;18869;55.970;37.502;2023-10-31T06:15:52;15.00;;;11.73;;
32407;SDS011;18869;55.970;37.502;2023-10-31T06:18:21;10.97;;;9.67;;
32407;SDS011;18869;55.970;37.502;2023-10-31T06:20:49;11.13;;;9.03;;
32407;SDS011;18869;55.970;37.502;2023-10-31T06:23:17;9.10;;;8.23;;
32407;SDS011;18869;55.970;37.502;2023-10-31T06:25:51;8.27;;;7.40;;
32407;SDS011;18869;55.970;37.502;2023-10-31T06:28:18;8.77;;;7.83;;
32407;SDS011;18869;55.970;37.502;2023-10-31T06:30:49;8.83;;;7.00;;
32407;SDS011;18869;55.970;37.502;2023-10-31T06:33:16;8.37;;;7.27;;
32407;SDS011;18869;55.970;37.502;2023-10-31T06:35:43;8.53;;;7.73;;
32407;SDS011;18869;55.970;37.502;2023-10-31T06:38:11;9.47;;;8.27;;
32407;SDS011;18869;55.970;37.502;2023-10-31T06:40:40;13.17;;;9.17;;
32407;SDS011;18869;55.970;37.502;2023-10-31T06:43:07;9.77;;;8.67;;
32407;SDS011;18869;55.970;37.502;2023-10-31T06:45:34;13.87;;;9.10;;
32407;SDS011;18869;55.970;37.502;2023-10-31T06:48:02;9.80;;;8.80;;
32407;SDS011;18869;55.970;37.502;2023-10-31T06:50:29;12.93;;;9.10;;
32407;SDS011;18869;55.970;37.502;2023-10-31T06:52:58;16.80;;;12.50;;
32407;SDS011;18869;55.970;37.502;2023-10-31T06:55:25;32.57;;;20.40;;
32407;SDS011;18869;55.970;37.502;2023-10-31T06:57:53;36.23;;;26.97;;
32407;SDS011;18869;55.970;37.502;2023-10-31T07:00:21;24.47;;;18.97;;
32407;SDS011;18869;55.970;37.502;2023-10-31T07:02:48;20.13;;;16.47;;
32407;SDS011;18869;55.970;37.502;2023-10-31T07:05:15;16.60;;;14.70;;
32407;SDS011;18869;55.970;37.502;2023-10-31T07:07:44;15.00;;;12.70;;
32407;SDS011;18869;55.970;37.502;2023-10-31T07:10:12;17.37;;;15.57;;
32407;SDS011;18869;55.970;37.502;2023-10-31T07:12:39;22.33;;;16.57;;
32407;SDS011;18869;55.970;37.502;2023-10-31T07:15:08;13.50;;;11.33;;
32407;SDS011;18869;55.970;37.502;2023-10-31T07:17:36;13.63;;;10.63;;
32407;SDS011;18869;55.970;37.502;2023-10-31T07:20:04;13.33;;;9.53;;
32407;SDS011;18869;55.970;37.502;2023-10-31T07:22:33;9.93;;;8.93;;
32407;SDS011;18869;55.970;37.502;2023-10-31T07:25:00;12.63;;;10.03;;
32407;SDS011;18869;55.970;37.502;2023-10-31T07:27:29;11.27;;;9.63;;
32407;SDS011;18869;55.970;37.502;2023-10-31T07:29:57;12.77;;;10.13;;
32407;SDS011;18869;55.970;37.502;2023-10-31T07:32:25;12.53;;;9.23;;
32407;SDS011;18869;55.970;37.502;2023-10-31T07:34:52;16.50;;;9.17;;
32407;SDS011;18869;55.970;37.502;2023-10-31T07:37:19;10.50;;;9.40;;
32407;SDS011;18869;55.970;37.502;2023-10-31T07:39:47;12.93;;;9.93;;
32407;SDS011;18869;55.970;37.502;2023-10-31T07:42:14;13.03;;;10.73;;
32407;SDS011;18869;55.970;37.502;2023-10-31T07:44:42;12.87;;;9.90;;
32407;SDS011;18869;55.970;37.502;2023-10-31T07:47:09;10.90;;;9.57;;
32407;SDS011;18869;55.970;37.502;2023-10-31T07:49:37;12.10;;;9.40;;
32407;SDS011;18869;55.970;37.502;2023-10-31T07:52:04;11.93;;;8.93;;
32407;SDS011;18869;55.970;37.502;2023-10-31T07:54:32;9.27;;;8.33;;
32407;SDS011;18869;55.970;37.502;2023-10-31T07:56:59;12.50;;;9.63;;
32407;SDS011;18869;55.970;37.502;2023-10-31T07:59:27;13.53;;;9.63;;
32407;SDS011;18869;55.970;37.502;2023-10-31T08:01:54;11.73;;;9.67;;
32407;SDS011;18869;55.970;37.502;2023-10-31T08:04:22;10.47;;;9.13;;
32407;SDS011;18869;55.970;37.502;2023-10-31T08:06:49;10.60;;;9.50;;
32407;SDS011;18869;55.970;37.502;2023-10-31T08:09:17;19.63;;;13.93;;
32407;SDS011;18869;55.970;37.502;2023-10-31T08:11:44;15.87;;;11.53;;
32407;SDS011;18869;55.970;37.502;2023-10-31T08:14:11;11.07;;;9.70;;
32407;SDS011;18869;55.970;37.502;2023-10-31T08:16:39;10.97;;;9.87;;
32407;SDS011;18869;55.970;37.502;2023-10-31T08:19:06;13.80;;;10.80;;
32407;SDS011;18869;55.970;37.502;2023-10-31T08:21:33;11.47;;;10.30;;
32407;SDS011;18869;55.970;37.502;2023-10-31T08:24:02;15.47;;;13.47;;
32407;SDS011;18869;55.970;37.502;2023-10-31T08:26:30;18.80;;;14.97;;
32407;SDS011;18869;55.970;37.502;2023-10-31T08:28:57;15.80;;;11.77;;
32407;SDS011;18869;55.970;37.502;2023-10-31T08:31:25;19.63;;;13.83;;
32407;SDS011;18869;55.970;37.502;2023-10-31T08:33:52;16.00;;;12.80;;
32407;SDS011;18869;55.970;37.502;2023-10-31T08:36:19;18.30;;;13.67;;
32407;SDS011;18869;55.970;37.502;2023-10-31T08:38:47;13.93;;;11.23;;
32407;SDS011;18869;55.970;37.502;2023-10-31T08:41:16;10.23;;;8.70;;
32407;SDS011;18869;55.970;37.502;2023-10-31T08:43:45;11.67;;;8.63;;
32407;SDS011;18869;55.970;37.502;2023-10-31T08:46:12;9.90;;;8.43;;
32407;SDS011;18869;55.970;37.502;2023-10-31T08:48:40;9.93;;;8.47;;
32407;SDS011;18869;55.970;37.502;2023-10-31T08:51:07;8.73;;;7.83;;
32407;SDS011;18869;55.970;37.502;2023-10-31T08:53:34;8.57;;;7.60;;
32407;SDS011;18869;55.970;37.502;2023-10-31T08:56:00;7.63;;;6.33;;
32407;SDS011;18869;55.970;37.502;2023-10-31T08:58:28;6.80;;;6.07;;
32407;SDS011;18869;55.970;37.502;2023-10-31T09:00:55;7.10;;;6.13;;
32407;SDS011;18869;55.970;37.502;2023-10-31T09:03:23;6.10;;;5.50;;
32407;SDS011;18869;55.970;37.502;2023-10-31T09:05:50;6.80;;;6.20;;
32407;SDS011;18869;55.970;37.502;2023-10-31T09:08:17;6.80;;;6.10;;
32407;SDS011;18869;55.970;37.502;2023-10-31T09:10:46;6.20;;;5.37;;
32407;SDS011;18869;55.970;37.502;2023-10-31T09:13:13;7.87;;;5.53;;
32407;SDS011;18869;55.970;37.502;2023-10-31T09:15:41;5.97;;;5.30;;
32407;SDS011;18869;55.970;37.502;2023-10-31T09:18:12;6.07;;;5.17;;
32407;SDS011;18869;55.970;37.502;2023-10-31T09:20:39;8.33;;;6.13;;
32407;SDS011;18869;55.970;37.502;2023-10-31T09:23:06;6.60;;;5.87;;
32407;SDS011;18869;55.970;37.502;2023-10-31T09:25:33;6.87;;;6.07;;
32407;SDS011;18869;55.970;37.502;2023-10-31T09:28:00;6.87;;;6.17;;
32407;SDS011;18869;55.970;37.502;2023-10-31T09:30:28;6.43;;;5.83;;
32407;SDS011;18869;55.970;37.502;2023-10-31T09:32:56;6.50;;;5.67;;
32407;SDS011;18869;55.970;37.502;2023-10-31T09:35:23;6.80;;;6.10;;
32407;SDS011;18869;55.970;37.502;2023-10-31T09:37:50;7.07;;;6.37;;
32407;SDS011;18869;55.970;37.502;2023-10-31T09:40:18;6.17;;;5.57;;
32407;SDS011;18869;55.970;37.502;2023-10-31T09:42:45;6.23;;;5.03;;
32407;SDS011;18869;55.970;37.502;2023-10-31T09:45:13;7.50;;;6.90;;
32407;SDS011;18869;55.970;37.502;2023-10-31T09:47:41;6.10;;;5.60;;
32407;SDS011;18869;55.970;37.502;2023-10-31T09:50:11;6.87;;;6.17;;
32407;SDS011;18869;55.970;37.502;2023-10-31T09:52:38;6.00;;;5.30;;
32407;SDS011;18869;55.970;37.502;2023-10-31T09:55:08;6.20;;;5.60;;
32407;SDS011;18869;55.970;37.502;2023-10-31T09:57:35;8.17;;;6.60;;
32407;SDS011;18869;55.970;37.502;2023-10-31T10:00:02;6.27;;;5.67;;
32407;SDS011;18869;55.970;37.502;2023-10-31T10:02:37;7.37;;;6.37;;
32407;SDS011;18869;55.970;37.502;2023-10-31T10:05:04;7.07;;;5.57;;
32407;SDS011;18869;55.970;37.502;2023-10-31T10:07:34;5.13;;;4.67;;
32407;SDS011;18869;55.970;37.502;2023-10-31T10:10:01;6.30;;;5.70;;
32407;SDS011;18869;55.970;37.502;2023-10-31T10:12:31;6.60;;;5.13;;
32407;SDS011;18869;55.970;37.502;2023-10-31T10:14:59;6.33;;;5.73;;
32407;SDS011;18869;55.970;37.502;2023-10-31T10:17:26;6.07;;;5.47;;
32407;SDS011;18869;55.970;37.502;2023-10-31T10:20:04;7.53;;;5.57;;
32407;SDS011;18869;55.970;37.502;2023-10-31T10:22:32;5.53;;;5.03;;
32407;SDS011;18869;55.970;37.502;2023-10-31T10:25:00;5.10;;;4.60;;
32407;SDS011;18869;55.970;37.502;2023-10-31T10:27:29;4.73;;;4.33;;
32407;SDS011;18869;55.970;37.502;2023-10-31T10:29:56;6.27;;;5.13;;
32407;SDS011;18869;55.970;37.502;2023-10-31T10:32:23;4.97;;;4.57;;
32407;SDS011;18869;55.970;37.502;2023-10-31T10:34:54;5.30;;;4.17;;
32407;SDS011;18869;55.970;37.502;2023-10-31T10:37:21;4.03;;;3.63;;
32407;SDS011;18869;55.970;37.502;2023-10-31T10:39:49;5.43;;;4.50;;
32407;SDS011;18869;55.970;37.502;2023-10-31T10:42:24;3.80;;;3.40;;
32407;SDS011;18869;55.970;37.502;2023-10-31T10:44:58;7.07;;;3.40;;
32407;SDS011;18869;55.970;37.502;2023-10-31T10:47:31;5.43;;;3.53;;
32407;SDS011;18869;55.970;37.502;2023-10-31T10:49:59;4.93;;;4.43;;
32407;SDS011;18869;55.970;37.502;2023-10-31T10:52:34;4.93;;;3.77;;
32407;SDS011;18869;55.970;37.502;2023-10-31T10:55:07;16.33;;;10.23;;
32407;SDS011;18869;55.970;37.502;2023-10-31T10:57:37;8.80;;;4.73;;
32407;SDS011;18869;55.970;37.502;2023-10-31T11:00:06;4.83;;;4.33;;
32407;SDS011;18869;55.970;37.502;2023-10-31T11:02:34;5.00;;;4.33;;
32407;SDS011;18869;55.970;37.502;2023-10-31T11:05:05;5.70;;;4.63;;
32407;SDS011;18869;55.970;37.502;2023-10-31T11:07:37;6.23;;;5.07;;
32407;SDS011;18869;55.970;37.502;2023-10-31T11:10:04;7.20;;;5.80;;
32407;SDS011;18869;55.970;37.502;2023-10-31T11:12:32;4.90;;;3.90;;
32407;SDS011;18869;55.970;37.502;2023-10-31T11:15:00;4.37;;;3.97;;
32407;SDS011;18869;55.970;37.502;2023-10-31T11:17:31;4.80;;;4.30;;
32407;SDS011;18869;55.970;37.502;2023-10-31T11:20:02;6.87;;;4.00;;
32407;SDS011;18869;55.970;37.502;2023-10-31T11:22:37;4.43;;;4.03;;
32407;SDS011;18869;55.970;37.502;2023-10-31T11:25:06;6.00;;;5.10;;
32407;SDS011;18869;55.970;37.502;2023-10-31T11:27:36;4.57;;;4.17;;
32407;SDS011;18869;55.970;37.502;2023-10-31T11:30:06;3.47;;;3.17;;
32407;SDS011;18869;55.970;37.502;2023-10-31T11:32:36;3.50;;;3.10;;
32407;SDS011;18869;55.970;37.502;2023-10-31T11:35:06;3.53;;;3.23;;
32407;SDS011;18869;55.970;37.502;2023-10-31T11:37:33;3.40;;;3.20;;
32407;SDS011;18869;55.970;37.502;2023-10-31T11:40:21;3.77;;;3.47;;
32407;SDS011;18869;55.970;37.502;2023-10-31T11:42:49;5.60;;;4.23;;
32407;SDS011;18869;55.970;37.502;2023-10-31T11:45:27;6.10;;;4.23;;
32407;SDS011;18869;55.970;37.502;2023-10-31T11:47:55;5.03;;;4.50;;
32407;SDS011;18869;55.970;37.502;2023-10-31T11:50:23;6.80;;;4.47;;
32407;SDS011;18869;55.970;37.502;2023-10-31T11:53:03;5.00;;;4.50;;
32407;SDS011;18869;55.970;37.502;2023-10-31T11:55:32;4.57;;;4.10;;
32407;SDS011;18869;55.970;37.502;2023-10-31T11:58:14;4.70;;;4.30;;
32407;SDS011;18869;55.970;37.502;2023-10-31T12:00:46;4.10;;;3.77;;
32407;SDS011;18869;55.970;37.502;2023-10-31T12:03:15;6.23;;;4.07;;
32407;SDS011;18869;55.970;37.502;2023-10-31T12:05:50;4.23;;;3.73;;
32407;SDS011;18869;55.970;37.502;2023-10-31T12:08:29;5.03;;;4.53;;
32407;SDS011;18869;55.970;37.502;2023-10-31T12:11:06;5.83;;;4.60;;
32407;SDS011;18869;55.970;37.502;2023-10-31T12:13:35;6.80;;;5.10;;
32407;SDS011;18869;55.970;37.502;2023-10-31T12:16:04;6.57;;;4.90;;
32407;SDS011;18869;55.970;37.502;2023-10-31T12:18:32;6.90;;;4.87;;
32407;SDS011;18869;55.970;37.502;2023-10-31T12:21:00;7.87;;;6.60;;
32407;SDS011;18869;55.970;37.502;2023-10-31T12:23:27;5.97;;;5.37;;
32407;SDS011;18869;55.970;37.502;2023-10-31T12:25:54;8.47;;;6.40;;
32407;SDS011;18869;55.970;37.502;2023-10-31T12:28:22;9.47;;;6.40;;
32407;SDS011;18869;55.970;37.502;2023-10-31T12:30:51;9.97;;;8.23;;
32407;SDS011;18869;55.970;37.502;2023-10-31T12:33:21;12.03;;;10.07;;
32407;SDS011;18869;55.970;37.502;2023-10-31T12:35:51;7.80;;;6.80;;
32407;SDS011;18869;55.970;37.502;2023-10-31T12:38:19;6.37;;;5.27;;
32407;SDS011;18869;55.970;37.502;2023-10-31T12:40:47;5.17;;;4.67;;
32407;SDS011;18869;55.970;37.502;2023-10-31T12:43:15;5.90;;;5.30;;
32407;SDS011;18869;55.970;37.502;2023-10-31T12:45:42;6.97;;;5.47;;
32407;SDS011;18869;55.970;37.502;2023-10-31T12:48:10;9.33;;;6.77;;
32407;SDS011;18869;55.970;37.502;2023-10-31T12:50:38;6.63;;;5.80;;
32407;SDS011;18869;55.970;37.502;2023-10-31T12:53:06;6.47;;;4.67;;
32407;SDS011;18869;55.970;37.502;2023-10-31T12:55:37;5.77;;;4.67;;
32407;SDS011;18869;55.970;37.502;2023-10-31T12:58:05;6.13;;;4.50;;
32407;SDS011;18869;55.970;37.502;2023-10-31T13:00:33;6.67;;;5.13;;
32407;SDS011;18869;55.970;37.502;2023-10-31T13:03:02;5.87;;;4.70;;
32407;SDS011;18869;55.970;37.502;2023-10-31T13:05:30;5.87;;;5.10;;
32407;SDS011;18869;55.970;37.502;2023-10-31T13:07:59;6.33;;;5.20;;
32407;SDS011;18869;55.970;37.502;2023-10-31T13:10:29;6.97;;;5.50;;
32407;SDS011;18869;55.970;37.502;2023-10-31T13:12:58;7.17;;;5.30;;
32407;SDS011;18869;55.970;37.502;2023-10-31T13:15:25;9.10;;;5.73;;
32407;SDS011;18869;55.970;37.502;2023-10-31T13:17:52;6.00;;;5.40;;
32407;SDS011;18869;55.970;37.502;2023-10-31T13:20:20;7.07;;;5.67;;
32407;SDS011;18869;55.970;37.502;2023-10-31T13:22:48;6.73;;;6.03;;
32407;SDS011;18869;55.970;37.502;2023-10-31T13:25:16;7.50;;;5.83;;
32407;SDS011;18869;55.970;37.502;2023-10-31T13:27:44;7.27;;;6.03;;
32407;SDS011;18869;55.970;37.502;2023-10-31T13:30:16;9.53;;;6.50;;
32407;SDS011;18869;55.970;37.502;2023-10-31T13:32:44;9.03;;;6.70;;
32407;SDS011;18869;55.970;37.502;2023-10-31T13:35:11;8.20;;;6.60;;
32407;SDS011;18869;55.970;37.502;2023-10-31T13:37:39;8.20;;;7.00;;
32407;SDS011;18869;55.970;37.502;2023-10-31T13:40:07;10.27;;;7.00;;
32407;SDS011;18869;55.970;37.502;2023-10-31T13:42:36;9.47;;;7.23;;
32407;SDS011;18869;55.970;37.502;2023-10-31T13:45:03;10.33;;;7.63;;
32407;SDS011;18869;55.970;37.502;2023-10-31T13:47:31;10.83;;;7.77;;
32407;SDS011;18869;55.970;37.502;2023-10-31T13:49:58;10.30;;;8.50;;
32407;SDS011;18869;55.970;37.502;2023-10-31T13:52:25;10.77;;;8.77;;
32407;SDS011;18869;55.970;37.502;2023-10-31T13:54:53;13.43;;;8.97;;
32407;SDS011;18869;55.970;37.502;2023-10-31T13:57:20;11.07;;;8.53;;
32407;SDS011;18869;55.970;37.502;2023-10-31T13:59:49;14.13;;;9.10;;
32407;SDS011;18869;55.970;37.502;2023-10-31T14:02:17;13.53;;;10.20;;
32407;SDS011;18869;55.970;37.502;2023-10-31T14:04:44;12.67;;;9.30;;
32407;SDS011;18869;55.970;37.502;2023-10-31T14:07:12;11.80;;;10.27;;
32407;SDS011;18869;55.970;37.502;2023-10-31T14:09:42;15.23;;;11.23;;
32407;SDS011;18869;55.970;37.502;2023-10-31T14:12:09;15.07;;;10.77;;
32407;SDS011;18869;55.970;37.502;2023-10-31T14:14:39;14.93;;;11.50;;
32407;SDS011;18869;55.970;37.502;2023-10-31T14:17:07;15.30;;;10.83;;
32407;SDS011;18869;55.970;37.502;2023-10-31T14:19:34;17.30;;;11.37;;
32407;SDS011;18869;55.970;37.502;2023-10-31T14:22:01;16.48;;;11.50;;
32407;SDS011;18869;55.970;37.502;2023-10-31T14:24:28;20.87;;;11.03;;
32407;SDS011;18869;55.970;37.502;2023-10-31T14:26:55;12.73;;;10.63;;
32407;SDS011;18869;55.970;37.502;2023-10-31T14:29:24;15.23;;;10.20;;
32407;SDS011;18869;55.970;37.502;2023-10-31T14:31:51;15.23;;;10.47;;
32407;SDS011;18869;55.970;37.502;2023-10-31T14:34:26;15.60;;;11.30;;
32407;SDS011;18869;55.970;37.502;2023-10-31T14:36:54;14.33;;;10.90;;
32407;SDS011;18869;55.970;37.502;2023-10-31T14:39:23;16.60;;;12.00;;
32407;SDS011;18869;55.970;37.502;2023-10-31T14:41:50;21.40;;;11.83;;
32407;SDS011;18869;55.970;37.502;2023-10-31T14:44:17;17.83;;;11.67;;
32407;SDS011;18869;55.970;37.502;2023-10-31T14:46:45;15.33;;;11.40;;
32407;SDS011;18869;55.970;37.502;2023-10-31T14:49:11;12.57;;;10.27;;
32407;SDS011;18869;55.970;37.502;2023-10-31T14:51:40;22.90;;;12.83;;
32407;SDS011;18869;55.970;37.502;2023-10-31T14:54:08;20.90;;;12.67;;
32407;SDS011;18869;55.970;37.502;2023-10-31T14:56:35;16.37;;;13.37;;
32407;SDS011;18869;55.970;37.502;2023-10-31T14:59:03;23.20;;;16.23;;
32407;SDS011;18869;55.970;37.502;2023-10-31T15:01:31;20.63;;;14.73;;
32407;SDS011;18869;55.970;37.502;2023-10-31T15:03:58;23.10;;;16.57;;